createdAt,value
2023-11-19T00:00:29.270Z,12.15
2023-11-19T00:02:57.610Z,12.17
2023-11-19T00:05:25.844Z,12.17
2023-11-19T00:07:54.130Z,12.16
2023-11-19T00:10:22.524Z,12.13
2023-11-19T00:12:51.812Z,12.12
2023-11-19T00:15:20.663Z,12.14
2023-11-19T00:17:50.277Z,12.10
2023-11-19T00:20:25.387Z,12.07
2023-11-19T00:22:53.607Z,12.06
2023-11-19T00:25:23.582Z,12.03
2023-11-19T00:27:54.751Z,12.04
2023-11-19T00:30:23.304Z,12.04
2023-11-19T00:32:51.558Z,12.02
2023-11-19T00:35:19.855Z,11.99
2023-11-19T00:37:49.045Z,11.95
2023-11-19T00:40:19.748Z,11.96
2023-11-19T00:42:49.045Z,11.99
2023-11-19T00:45:17.512Z,11.98
2023-11-19T00:47:45.848Z,12.01
2023-11-19T00:50:14.547Z,12.03
2023-11-19T00:52:42.952Z,12.02
2023-11-19T00:55:12.912Z,12.02
2023-11-19T00:57:42.324Z,11.97
2023-11-19T01:00:21.244Z,11.99
2023-11-19T01:02:52.260Z,12.01
2023-11-19T01:05:23.915Z,12.00
2023-11-19T01:07:55.747Z,11.99
2023-11-19T01:10:24.616Z,11.97
2023-11-19T01:12:53.537Z,12.00
2023-11-19T01:15:21.942Z,12.03
2023-11-19T01:20:22.474Z,12.02
2023-11-19T01:22:51.700Z,12.02
2023-11-19T01:25:20.625Z,11.98
2023-11-19T01:27:49.165Z,11.98
2023-11-19T01:30:17.473Z,11.96
2023-11-19T01:32:45.803Z,11.97
2023-11-19T01:35:14.317Z,11.95
2023-11-19T01:37:42.572Z,11.94
2023-11-19T01:40:13.048Z,11.98
2023-11-19T01:42:42.289Z,11.99
2023-11-19T01:45:11.744Z,12.00
2023-11-19T01:47:40.554Z,12.01
2023-11-19T01:50:10.513Z,12.02
2023-11-19T01:52:40.209Z,11.98
2023-11-19T01:55:11.276Z,11.97
2023-11-19T01:57:42.326Z,11.95
2023-11-19T02:00:14.903Z,11.98
2023-11-19T02:02:47.628Z,11.98
2023-11-19T02:05:16.410Z,11.96
2023-11-19T02:07:44.668Z,11.92
2023-11-19T02:10:15.949Z,11.86
2023-11-19T02:12:44.488Z,11.82
2023-11-19T02:15:13.283Z,11.78
2023-11-19T02:17:41.745Z,11.69
2023-11-19T02:20:13.195Z,11.63
2023-11-19T02:22:41.784Z,11.59
2023-11-19T02:25:17.912Z,11.57
2023-11-19T02:27:58.904Z,11.50
2023-11-19T02:30:30.474Z,11.47
2023-11-19T02:32:59.854Z,11.43
2023-11-19T02:35:28.450Z,11.40
2023-11-19T02:37:56.820Z,11.36
2023-11-19T02:40:26.434Z,11.30
2023-11-19T02:42:57.085Z,11.28
2023-11-19T02:45:27.195Z,11.27
2023-11-19T02:47:56.448Z,11.24
2023-11-19T02:50:27.956Z,11.20
2023-11-19T02:52:58.446Z,11.21
2023-11-19T02:55:29.506Z,11.19
2023-11-19T02:58:00.852Z,11.18
2023-11-19T03:00:37.267Z,11.19
2023-11-19T03:03:21.532Z,11.20
2023-11-19T03:05:50.143Z,11.13
2023-11-19T03:10:50.238Z,11.00
2023-11-19T03:13:19.345Z,10.92
2023-11-19T03:15:47.776Z,10.88
2023-11-19T03:18:16.177Z,10.85
2023-11-19T03:20:44.470Z,10.85
2023-11-19T03:23:12.687Z,10.80
2023-11-19T03:25:41.006Z,10.75
2023-11-19T03:28:09.302Z,10.68
2023-11-19T03:30:37.578Z,10.67
2023-11-19T03:33:06.064Z,10.63
2023-11-19T03:35:34.445Z,10.61
2023-11-19T03:38:02.710Z,10.55
2023-11-19T03:40:31.427Z,10.54
2023-11-19T03:43:00.068Z,10.53
2023-11-19T03:45:28.345Z,10.52
2023-11-19T03:47:56.979Z,10.48
2023-11-19T03:50:25.212Z,10.42
2023-11-19T03:52:53.964Z,10.42
2023-11-19T03:55:22.314Z,10.38
2023-11-19T03:57:50.840Z,10.34
2023-11-19T04:00:19.299Z,10.35
2023-11-19T04:02:48.332Z,10.33
2023-11-19T04:05:16.668Z,10.28
2023-11-19T04:07:44.964Z,10.25
2023-11-19T04:10:13.861Z,10.21
2023-11-19T04:12:42.130Z,10.20
2023-11-19T04:15:10.555Z,10.19
2023-11-19T04:17:38.820Z,10.18
2023-11-19T04:20:11.939Z,10.16
2023-11-19T04:22:40.199Z,10.17
2023-11-19T04:25:08.936Z,10.18
2023-11-19T04:27:37.199Z,10.20
2023-11-19T04:30:06.336Z,10.18
2023-11-19T04:32:34.694Z,10.16
2023-11-19T04:35:02.913Z,10.17
2023-11-19T04:37:31.161Z,10.17
2023-11-19T04:40:01.299Z,10.12
2023-11-19T04:42:30.759Z,10.10
2023-11-19T04:44:58.994Z,10.10
2023-11-19T04:47:27.249Z,10.09
2023-11-19T04:49:55.604Z,10.04
2023-11-19T04:52:24.072Z,10.01
2023-11-19T04:54:52.332Z,10.02
2023-11-19T04:57:20.567Z,9.99
2023-11-19T04:59:48.998Z,9.98
2023-11-19T05:02:17.233Z,9.95
2023-11-19T05:04:46.903Z,9.93
2023-11-19T05:07:15.247Z,9.88
2023-11-19T05:09:44.453Z,9.91
2023-11-19T05:12:13.666Z,9.88
2023-11-19T05:14:42.121Z,9.87
2023-11-19T05:17:10.468Z,9.87
2023-11-19T05:19:38.705Z,9.95
2023-11-19T05:22:07.509Z,9.92
2023-11-19T05:24:37.147Z,9.85
2023-11-19T05:27:05.533Z,9.82
2023-11-19T05:29:33.760Z,9.82
2023-11-19T05:32:02.317Z,9.79
2023-11-19T05:34:30.540Z,9.76
2023-11-19T05:36:59.030Z,9.76
2023-11-19T05:39:27.238Z,9.72
2023-11-19T05:41:55.449Z,9.72
2023-11-19T05:44:23.629Z,9.69
2023-11-19T05:46:52.006Z,9.67
2023-11-19T05:49:20.252Z,9.66
2023-11-19T05:51:48.492Z,9.65
2023-11-19T05:54:17.265Z,9.65
2023-11-19T05:56:50.634Z,9.65
2023-11-19T05:59:18.933Z,9.65
2023-11-19T06:01:47.682Z,9.65
2023-11-19T06:04:16.028Z,9.67
2023-11-19T06:06:44.515Z,9.66
2023-11-19T06:09:14.674Z,9.68
2023-11-19T06:11:43.093Z,9.65
2023-11-19T06:14:11.316Z,9.64
2023-11-19T06:16:41.537Z,9.60
2023-11-19T06:19:11.318Z,9.62
2023-11-19T06:21:39.660Z,9.63
2023-11-19T06:24:08.094Z,9.62
2023-11-19T06:26:36.277Z,9.61
2023-11-19T06:29:04.532Z,9.59
2023-11-19T06:31:32.860Z,9.63
2023-11-19T06:34:01.185Z,9.62
2023-11-19T06:36:29.396Z,9.59
2023-11-19T06:38:57.571Z,9.59
2023-11-19T06:41:25.736Z,9.61
2023-11-19T06:43:53.914Z,9.59
2023-11-19T06:46:22.367Z,9.55
2023-11-19T06:48:50.609Z,9.54
2023-11-19T06:51:18.868Z,9.53
2023-11-19T06:53:47.211Z,9.52
2023-11-19T06:56:25.460Z,9.52
2023-11-19T06:58:54.441Z,9.54
2023-11-19T07:01:23.075Z,9.55
2023-11-19T07:03:52.624Z,9.63
2023-11-19T07:09:10.443Z,9.69
2023-11-19T07:11:43.579Z,9.70
2023-11-19T07:14:12.623Z,9.72
2023-11-19T07:16:40.583Z,9.71
2023-11-19T07:19:08.783Z,9.70
2023-11-19T07:21:40.804Z,9.73
2023-11-19T07:24:09.225Z,9.77
2023-11-19T07:26:38.677Z,9.77
2023-11-19T07:29:09.016Z,9.84
2023-11-19T07:31:38.406Z,9.91
2023-11-19T07:34:07.817Z,9.94
2023-11-19T07:36:37.278Z,9.99
2023-11-19T07:39:06.321Z,9.98
2023-11-19T07:41:34.694Z,9.99
2023-11-19T07:44:07.986Z,9.97
2023-11-19T07:46:36.330Z,9.96
2023-11-19T07:49:04.574Z,10.01
2023-11-19T07:51:32.838Z,10.02
2023-11-19T07:54:01.058Z,10.07
2023-11-19T07:56:29.352Z,10.11
2023-11-19T07:58:57.612Z,10.12
2023-11-19T08:01:25.850Z,10.14
2023-11-19T08:06:25.244Z,10.24
2023-11-19T08:08:53.607Z,10.23
2023-11-19T08:11:21.864Z,10.24
2023-11-19T08:13:50.129Z,10.28
2023-11-19T08:16:18.428Z,10.29
2023-11-19T08:18:46.793Z,10.32
2023-11-19T08:21:15.068Z,10.35
2023-11-19T08:23:43.718Z,10.44
2023-11-19T08:26:12.028Z,10.51
2023-11-19T08:28:40.334Z,10.46
2023-11-19T08:31:08.536Z,10.47
2023-11-19T08:33:36.889Z,10.59
2023-11-19T08:36:06.048Z,10.71
2023-11-19T08:38:34.280Z,10.66
2023-11-19T08:41:02.528Z,10.69
2023-11-19T08:43:32.327Z,10.79
2023-11-19T08:46:00.615Z,10.88
2023-11-19T08:48:28.887Z,10.97
2023-11-19T08:50:57.064Z,11.05
2023-11-19T08:53:25.351Z,11.06
2023-11-19T08:55:53.878Z,11.05
2023-11-19T08:58:22.790Z,11.00
2023-11-19T09:00:51.001Z,11.09
2023-11-19T09:03:19.760Z,11.31
2023-11-19T09:05:48.428Z,11.41
2023-11-19T09:08:16.720Z,11.58
2023-11-19T09:10:44.990Z,11.57
2023-11-19T09:13:13.728Z,11.56
2023-11-19T09:15:43.767Z,11.54
2023-11-19T09:18:12.170Z,11.56
2023-11-19T09:20:40.691Z,11.69
2023-11-19T09:23:10.586Z,11.53
2023-11-19T09:28:10.378Z,11.34
2023-11-19T09:30:39.224Z,11.34
2023-11-19T09:33:07.703Z,11.36
2023-11-19T09:35:36.049Z,11.37
2023-11-19T09:38:06.716Z,11.41
2023-11-19T09:40:35.030Z,11.40
2023-11-19T09:43:03.628Z,11.69
2023-11-19T09:45:40.326Z,12.28
2023-11-19T09:48:09.058Z,11.98
2023-11-19T09:50:37.670Z,12.01
2023-11-19T09:53:06.763Z,11.88
2023-11-19T09:55:35.042Z,11.81
2023-11-19T09:58:03.829Z,11.80
2023-11-19T10:00:32.712Z,11.91
2023-11-19T10:03:01.326Z,11.88
2023-11-19T10:05:29.864Z,11.93
2023-11-19T10:07:58.212Z,12.28
2023-11-19T10:10:26.604Z,12.12
2023-11-19T10:15:28.618Z,12.98
2023-11-19T10:18:00.139Z,13.47
2023-11-19T10:20:28.420Z,14.19
2023-11-19T10:22:57.612Z,14.50
2023-11-19T10:25:28.191Z,16.86
2023-11-19T10:27:57.544Z,16.87
2023-11-19T10:30:27.777Z,15.39
2023-11-19T10:33:18.833Z,16.01
2023-11-19T10:36:03.518Z,15.98
2023-11-19T10:38:32.021Z,16.69
2023-11-19T10:41:00.470Z,17.14
2023-11-19T10:43:29.314Z,16.63
2023-11-19T10:46:12.050Z,15.57
2023-11-19T10:48:41.177Z,14.89
2023-11-19T10:51:10.012Z,14.97
2023-11-19T10:53:39.449Z,14.84
2023-11-19T10:56:12.272Z,14.84
2023-11-19T10:58:47.548Z,14.75
2023-11-19T11:01:23.830Z,14.65
2023-11-19T11:03:55.627Z,14.36
2023-11-19T11:06:25.187Z,14.33
2023-11-19T11:08:53.604Z,14.41
2023-11-19T11:11:24.707Z,14.19
2023-11-19T11:13:56.820Z,13.98
2023-11-19T11:16:27.027Z,13.87
2023-11-19T11:18:56.089Z,13.90
2023-11-19T11:21:28.010Z,13.95
2023-11-19T11:24:04.812Z,13.91
2023-11-19T11:27:15.105Z,13.74
2023-11-19T11:30:22.112Z,13.45
2023-11-19T11:33:12.716Z,13.31
2023-11-19T11:36:03.146Z,13.30
2023-11-19T11:38:39.053Z,13.52
2023-11-19T11:41:29.765Z,13.42
2023-11-19T11:44:01.482Z,13.27
2023-11-19T11:46:38.448Z,13.15
2023-11-19T11:49:08.130Z,13.16
2023-11-19T11:51:45.753Z,13.43
2023-11-19T11:54:29.181Z,13.46
2023-11-19T11:59:46.430Z,13.43
2023-11-19T12:02:18.271Z,13.32
2023-11-19T12:04:51.246Z,13.26
2023-11-19T12:07:22.959Z,13.25
2023-11-19T12:10:14.596Z,13.17
2023-11-19T12:12:43.297Z,13.13
2023-11-19T12:15:12.057Z,12.98
2023-11-19T12:17:47.357Z,12.98
2023-11-19T12:20:15.621Z,13.09
2023-11-19T12:22:45.152Z,13.27
2023-11-19T12:25:14.739Z,13.36
2023-11-19T12:27:49.294Z,13.23
2023-11-19T12:30:27.667Z,13.20
2023-11-19T12:32:56.588Z,13.12
2023-11-19T12:35:25.488Z,13.00
2023-11-19T12:37:54.136Z,12.92
2023-11-19T12:40:24.866Z,12.91
2023-11-19T12:42:55.006Z,12.84
2023-11-19T12:45:25.346Z,12.83
2023-11-19T12:48:07.510Z,12.86
2023-11-19T12:51:04.118Z,12.91
2023-11-19T12:53:55.513Z,12.90
2023-11-19T12:56:24.199Z,12.84
2023-11-19T12:58:52.684Z,12.86
2023-11-19T13:01:22.880Z,12.87
2023-11-19T13:03:52.967Z,12.87
2023-11-19T13:06:22.757Z,12.86
2023-11-19T13:08:56.395Z,12.83
2023-11-19T13:11:38.211Z,12.77
2023-11-19T13:14:10.013Z,12.74
2023-11-19T13:16:40.447Z,12.73
2023-11-19T13:19:10.121Z,12.63
2023-11-19T13:21:39.307Z,12.56
2023-11-19T13:24:08.519Z,12.47
2023-11-19T13:26:36.946Z,12.43
2023-11-19T13:29:05.466Z,12.41
2023-11-19T13:31:34.105Z,12.41
2023-11-19T13:34:18.227Z,12.39
2023-11-19T13:36:46.764Z,12.46
2023-11-19T13:39:23.918Z,12.46
2023-11-19T13:41:52.365Z,12.51
2023-11-19T13:44:20.602Z,12.51
2023-11-19T13:46:48.992Z,12.51
2023-11-19T13:49:17.216Z,12.53
2023-11-19T13:51:45.610Z,12.52
2023-11-19T13:54:15.691Z,12.53
2023-11-19T13:56:45.856Z,12.47
2023-11-19T13:59:14.036Z,12.40
2023-11-19T14:01:42.257Z,12.40
2023-11-19T14:04:10.648Z,12.41
2023-11-19T14:06:38.981Z,12.39
2023-11-19T14:09:09.209Z,12.37
2023-11-19T14:11:37.433Z,12.35
2023-11-19T14:14:05.600Z,12.34
2023-11-19T14:16:35.583Z,12.34
2023-11-19T14:19:04.178Z,12.29
2023-11-19T14:21:32.723Z,12.23
2023-11-19T14:24:00.936Z,12.20
2023-11-19T14:26:29.156Z,12.20
2023-11-19T14:28:57.386Z,12.19
2023-11-19T14:31:25.613Z,12.14
2023-11-19T14:33:55.538Z,12.03
2023-11-19T14:36:24.808Z,11.95
2023-11-19T14:38:53.004Z,11.88
2023-11-19T14:41:21.210Z,11.85
2023-11-19T14:43:49.509Z,11.83
2023-11-19T14:46:17.827Z,11.78
2023-11-19T14:48:46.114Z,11.78
2023-11-19T14:51:14.371Z,11.77
2023-11-19T14:53:42.661Z,11.74
2023-11-19T14:56:17.172Z,11.71
2023-11-19T14:58:46.110Z,11.69
2023-11-19T15:01:14.296Z,11.71
2023-11-19T15:06:13.813Z,11.72
2023-11-19T15:08:43.083Z,11.72
2023-11-19T15:11:12.921Z,11.73
2023-11-19T15:13:43.237Z,11.74
2023-11-19T15:16:13.246Z,11.74
2023-11-19T15:18:42.546Z,11.71
2023-11-19T15:21:10.810Z,11.67
2023-11-19T15:23:39.167Z,11.65
2023-11-19T15:26:09.315Z,11.65
2023-11-19T15:28:37.805Z,11.65
2023-11-19T15:31:06.299Z,11.66
2023-11-19T15:33:34.489Z,11.67
2023-11-19T15:36:08.905Z,11.70
2023-11-19T15:38:52.953Z,11.76
2023-11-19T15:41:21.927Z,11.73
2023-11-19T15:43:50.201Z,11.77
2023-11-19T15:46:18.428Z,11.78
2023-11-19T15:48:46.890Z,11.79
2023-11-19T15:51:15.158Z,11.81
2023-11-19T15:53:44.799Z,11.80
2023-11-19T15:56:13.049Z,11.81
2023-11-19T15:58:41.340Z,11.81
2023-11-19T16:01:10.133Z,11.80
2023-11-19T16:06:11.717Z,11.74
2023-11-19T16:08:40.176Z,11.76
2023-11-19T16:11:09.541Z,11.73
2023-11-19T16:13:37.834Z,11.70
2023-11-19T16:16:07.258Z,11.69
2023-11-19T16:18:36.303Z,11.68
2023-11-19T16:21:04.541Z,11.64
2023-11-19T16:23:33.111Z,11.63
2023-11-19T16:26:01.418Z,11.61
2023-11-19T16:28:29.596Z,11.62
2023-11-19T16:30:57.855Z,11.60
2023-11-19T16:33:31.051Z,11.60
2023-11-19T16:35:59.778Z,11.55
2023-11-19T16:38:28.325Z,11.48
2023-11-19T16:40:57.214Z,11.42
2023-11-19T16:43:29.028Z,11.34
2023-11-19T16:45:58.146Z,11.30
2023-11-19T16:48:26.501Z,11.23
2023-11-19T16:53:27.603Z,11.11
2023-11-19T16:55:55.825Z,11.07
2023-11-19T16:58:25.186Z,11.03
2023-11-19T17:00:53.912Z,11.01
2023-11-19T17:03:22.252Z,10.97
2023-11-19T17:05:51.499Z,10.95
2023-11-19T17:08:19.770Z,10.93
2023-11-19T17:10:48.634Z,10.90
2023-11-19T17:13:16.957Z,10.88
2023-11-19T17:15:45.282Z,10.87
2023-11-19T17:18:13.600Z,10.84
2023-11-19T17:20:41.936Z,10.84
2023-11-19T17:23:10.309Z,10.82
2023-11-19T17:25:39.961Z,10.79
2023-11-19T17:28:08.956Z,10.78
2023-11-19T17:30:37.002Z,10.78
2023-11-19T17:33:06.348Z,10.79
2023-11-19T17:35:34.927Z,10.78
2023-11-19T17:38:03.643Z,10.75
2023-11-19T17:40:32.750Z,10.75
2023-11-19T17:43:01.074Z,10.74
2023-11-19T17:45:30.584Z,10.74
2023-11-19T17:47:58.844Z,10.73
2023-11-19T17:50:27.253Z,10.72
2023-11-19T17:52:55.526Z,10.72
2023-11-19T17:55:23.701Z,10.71
2023-11-19T17:57:52.566Z,10.72
2023-11-19T18:00:23.065Z,10.72
2023-11-19T18:02:53.470Z,10.71
2023-11-19T18:05:22.560Z,10.72
2023-11-19T18:07:50.522Z,10.71
2023-11-19T18:10:18.950Z,10.70
2023-11-19T18:12:47.307Z,10.69
2023-11-19T18:15:16.354Z,10.69
2023-11-19T18:17:45.477Z,10.68
2023-11-19T18:20:16.116Z,10.69
2023-11-19T18:22:47.320Z,10.70
2023-11-19T18:25:19.067Z,10.70
2023-11-19T18:27:47.798Z,10.70
2023-11-19T18:30:17.259Z,10.71
2023-11-19T18:32:46.121Z,10.71
2023-11-19T18:35:18.080Z,10.72
2023-11-19T18:37:47.857Z,10.72
2023-11-19T18:40:20.440Z,10.73
2023-11-19T18:42:52.921Z,10.72
2023-11-19T18:45:23.938Z,10.73
2023-11-19T18:47:52.941Z,10.74
2023-11-19T18:50:22.263Z,10.73
2023-11-19T18:52:51.085Z,10.73
2023-11-19T18:55:19.331Z,10.73
2023-11-19T18:57:48.064Z,10.74
2023-11-19T19:00:17.937Z,10.73
2023-11-19T19:05:20.969Z,10.75
2023-11-19T19:07:49.434Z,10.75
2023-11-19T19:10:17.635Z,10.74
2023-11-19T19:12:46.132Z,10.76
2023-11-19T19:15:17.388Z,10.78
2023-11-19T19:17:45.984Z,10.78
2023-11-19T19:20:14.484Z,10.81
2023-11-19T19:22:43.933Z,10.81
2023-11-19T19:25:12.226Z,10.82
2023-11-19T19:27:40.469Z,10.81
2023-11-19T19:30:09.991Z,10.82
2023-11-19T19:32:40.530Z,10.83
2023-11-19T19:35:09.512Z,10.84
2023-11-19T19:37:37.516Z,10.84
2023-11-19T19:40:27.024Z,10.84
2023-11-19T19:42:54.962Z,10.84
2023-11-19T19:45:23.947Z,10.82
2023-11-19T19:47:51.878Z,10.85
2023-11-19T19:50:20.193Z,10.84
2023-11-19T19:52:48.493Z,10.86
2023-11-19T19:55:21.998Z,10.89
2023-11-19T19:57:50.307Z,10.87
2023-11-19T20:00:20.105Z,10.87
2023-11-19T20:02:49.762Z,10.88
2023-11-19T20:05:18.122Z,10.88
2023-11-19T20:07:48.924Z,10.89
2023-11-19T20:10:17.530Z,10.89
2023-11-19T20:12:45.719Z,10.91
2023-11-19T20:15:15.888Z,10.92
2023-11-19T20:17:44.234Z,10.93
2023-11-19T20:20:12.862Z,10.94
2023-11-19T20:22:41.407Z,10.96
2023-11-19T20:25:11.505Z,10.95
2023-11-19T20:27:39.836Z,10.97
2023-11-19T20:30:08.649Z,10.98
2023-11-19T20:32:37.922Z,10.98
2023-11-19T20:35:08.534Z,11.00
2023-11-19T20:37:38.559Z,11.01
2023-11-19T20:40:08.367Z,11.02
2023-11-19T20:42:38.436Z,11.02
2023-11-19T20:45:11.605Z,11.04
2023-11-19T20:47:40.978Z,11.05
2023-11-19T20:50:10.037Z,11.06
2023-11-19T20:52:42.146Z,11.05
2023-11-19T20:55:12.655Z,11.06
2023-11-19T20:57:41.058Z,11.06
2023-11-19T21:00:15.495Z,11.06
2023-11-19T21:02:43.836Z,11.06
2023-11-19T21:05:12.154Z,11.07
2023-11-19T21:07:41.411Z,11.07
2023-11-19T21:10:10.078Z,11.08
2023-11-19T21:12:38.340Z,11.08
2023-11-19T21:15:07.320Z,11.09
2023-11-19T21:17:35.381Z,11.08
2023-11-19T21:20:04.240Z,11.08
2023-11-19T21:22:32.135Z,11.08
2023-11-19T21:25:00.431Z,11.10
2023-11-19T21:27:30.952Z,11.09
2023-11-19T21:30:02.203Z,11.09
2023-11-19T21:32:30.435Z,11.09
2023-11-19T21:34:58.702Z,11.09
2023-11-19T21:37:26.920Z,11.08
2023-11-19T21:39:55.204Z,11.10
2023-11-19T21:42:23.516Z,11.08
2023-11-19T21:44:51.749Z,11.08
2023-11-19T21:47:19.950Z,11.08
2023-11-19T21:49:49.012Z,11.08
2023-11-19T21:52:17.227Z,11.08
2023-11-19T21:54:45.457Z,11.08
2023-11-19T21:57:13.687Z,11.06
2023-11-19T21:59:42.226Z,11.07
2023-11-19T22:02:10.513Z,11.07
2023-11-19T22:04:38.802Z,11.06
2023-11-19T22:07:08.560Z,11.06
2023-11-19T22:09:37.020Z,11.04
2023-11-19T22:12:05.563Z,11.03
2023-11-19T22:14:36.728Z,11.03
2023-11-19T22:17:05.331Z,11.04
2023-11-19T22:19:33.509Z,11.02
2023-11-19T22:22:01.776Z,11.02
2023-11-19T22:24:30.272Z,11.01
2023-11-19T22:26:58.523Z,11.00
2023-11-19T22:29:26.750Z,11.00
2023-11-19T22:31:54.976Z,11.01
2023-11-19T22:34:23.237Z,11.00
2023-11-19T22:36:52.194Z,11.00
2023-11-19T22:39:20.092Z,11.00
2023-11-19T22:41:48.520Z,11.01
2023-11-19T22:44:16.697Z,10.99
2023-11-19T22:46:44.937Z,11.01
2023-11-19T22:49:13.136Z,10.99
2023-11-19T22:51:41.424Z,10.99
2023-11-19T22:54:09.980Z,10.99
2023-11-19T22:56:38.249Z,10.99
2023-11-19T22:59:06.485Z,10.98
2023-11-19T23:01:34.872Z,10.97
2023-11-19T23:04:03.523Z,10.96
2023-11-19T23:06:31.820Z,10.95
2023-11-19T23:09:00.149Z,10.94
2023-11-19T23:11:28.395Z,10.94
2023-11-19T23:13:56.587Z,10.93
2023-11-19T23:16:26.426Z,10.93
2023-11-19T23:18:55.854Z,10.95
2023-11-19T23:21:24.057Z,10.93
2023-11-19T23:23:52.363Z,10.92
2023-11-19T23:26:21.075Z,10.92
2023-11-19T23:28:49.976Z,10.91
2023-11-19T23:31:17.970Z,10.91
2023-11-19T23:33:46.449Z,10.90
2023-11-19T23:36:14.707Z,10.87
2023-11-19T23:38:42.885Z,10.86
2023-11-19T23:41:11.528Z,10.86
2023-11-19T23:43:39.821Z,10.87
2023-11-19T23:46:10.348Z,10.85
2023-11-19T23:48:59.007Z,10.85
2023-11-19T23:51:27.553Z,10.84
2023-11-19T23:53:57.432Z,10.83
2023-11-19T23:56:25.697Z,10.82
2023-11-19T23:58:55.070Z,10.82
